Página principal
METAR-TAF:

METAR-TAF

Aeroportos :

Ulaanbaatar, Mongólia

Aeroporto Internacional Chinggis Khaan

latitude: 47-55N, longitude: 106-52E, altura: 1306 m

Observação actual do tempo

O boletim foi feito há 48 minutos, às 18:00 UTC
Vento 2 kt com direcção variável
Temperatura 4°C
Humidade 38%
Pressão 1019 hPa
Visibilidade 10 km ou mais
sem nuvens abaixo de 1500 metros e sem cumulonimbus

METAR: ZMUB 271800Z VRB01MPS CAVOK 04/M09 Q1019 NOSIG RMK QFE656.5 41

Hora: 03:48 (18:48 UTC)

Previsão

O boletim foi feito há 2 horas e 8 minutos, às 16:40 UTC
Previsão válida de 27 às 18 UTC a 28 às 24 UTC
Vento 4 kt com direcção variável
Visibilidade 10 km ou mais
Nuvens dispersasa uma altura de 10000 ft
Tornando-se
de 28 às 03 UTC a 28 às 06 UTC
Vento 12 kt de noroeste
Tornando-se
de 28 às 10 UTC a 28 às 12 UTC
Vento 4 kt com direcção variável

TAF: ZMUB 271640Z 2718/2824 VRB02MPS 9999 SCT100 TNM01/2722Z TX22/2807Z BECMG 2803/2806 31006MPS BECMG 2810/2812 VRB02MPS

Observações e previsões do tempo de mais de 4000 aeroportos (mensagens METAR e TAF).

As estações disponíveis são os pontos amarelos e vermelhos sobre o mapa.

Mova o rato sobre o mapa para ver o nome da estação.

Depois clique no ponto para visualizar as observações e previsões meteorológicas.

Para alterar o mapa : clique nos botões verdes com uma cruz preta para aumentar o zoom; no botão verde com uma pitada de zoom; ou nas setas verdes para mapas adjacentes.


METAR-TAF: